Tuesday, May 03, 2016
20:12 UTC
  |  Log In   |  Register Free
Airport Search:

Fresno Yosemite International Airport
(KFAT)

FAA data valid effective Mar 31 2016 - May 26 2016 (unless otherwise noted).

 
 
 
 
 
 
 
 
 
 
 
 
 
 
Summary: Fresno Yosemite International (FAT)

Weather Summary


METAR for KFAT is not available. Closest METAR is for KMAE
KFAT  (most recent observation was updatred at 31:95 UTC)
031953Z 14005KT 10SM FEW080 BKN150 BKN200 BKN250 28/07 A2994 RMK AO2 SLP135 T02830072

KMAE  (22.8 nm SE)   (most recent observation was updated at 31:95 UTC)
031953Z AUTO 22006KT 10SM CLR 28/11 A2994 RMK AO2 SLP137 T02780111

KHJO  (27.9 nm NW)   (most recent observation was updated at 31:95 UTC)
031953Z AUTO 00000KT 10SM CLR 28/08 A2994 RMK AO2 SLP137 T02830078

TAF for KFAT is not available.
KFAT
031727Z 0318/0418 VRB04KT P6SM BKN250 FM040000 31006KT P6SM SCT120 BKN200 TEMPO 0404/0408 32011G17KT

KNLC  (28.9 nm NE)   (most recent observation was updatred at UTC)
0315/0415 30005KT 9999 BKN210 QNH2995INS FM031700 VRB06KT 9999 BKN210 QNH2983INS TEMPO 0320/0402 04008KT FEW060 FM040200 31008KT 9999 BKN180 QNH2982INS T32/0322Z T15/0413Z FS30067


KVIS  (31.6 nm NW)   (most recent observation was updatred at 31:72 UTC)
031727Z 0318/0418 VRB04KT P6SM BKN250 FM040000 29005KT P6SM SCT120 BKN200
GlobalAir.com is loading additional information.
 Current Weather at FAT
80.0 F° (26.7 C°)
Mostly Cloudy
South winds at 5.8 mph
Pressure:
29.96 in
Humidity:
35%
Wind:
South at 5.8 MPH (5 KT)
Dew Point:
50.0 F° (10.0 C°)
Visibility:
10.00 mi
FAT NOAA Radar

Communications Summary


CTAFN/A
UNICOM122.95
ATIS121.35
WX ASOS
FRESNO GROUND121.7 [24 Hours]
FRESNO TOWER118.2 [24 Hours]
FRESNO APPROACH118.5
118.5 (S/SE VISALIA AREA)
119.0
119.45
119.6
119.6 (240-090)
123.9
132.35 (091-239)
323.25
351.95
FRESNO DEPARTURE118.5
118.5 (S/SE VISALIA AREA)
119.0
119.45
119.6 (240-090)
123.9
132.35 (091-239)
323.25
CLEARANCE DELIVERY124.35
EMERGENCY121.5

Closest Alternate Airports with Instrument Procedures

KFCH - Fresno Chandler Executive - 6.4 nm SW from FAT

KMAE - Madera Municipal - 26.3 nm NW from FAT

KHJO - Hanford Municipal - 32.2 nm SE from FAT

KVIS - Visalia Municipal - 36.4 nm SE from FAT

KF34 - Firebaugh - 41.7 nm NW from FAT

KTLR - Mefford Field - 48.1 nm SE from FAT

KMPI - Mariposa-Yosemite - 53.8 nm NW from FAT

KMCE - Merced Municipal/Macready Field - 56.3 nm NW from FAT

KMER - Castle - 62.8 nm NW from FAT

KPTV - Porterville Municipal - 63.2 nm SE from FAT

Find All Airport Services Find A Hotel Find A Rental Car Find A Golf Course Find A Restaurant $100 Hamburger



FBO's on the Field
FBO Company Facility Photos Services Transportation Aviation Fuel Prices: Prices include tax
Catering Weather Repair Courtesy Rental Type 100LL JetA JetA+ MOGAS 8087
 
Landmark Aviation - FAT

This FBO has not yet been rated
FS:Chevron
Last Updated: May-03
Login to update fuel prices
SS:
Contact Landmark Aviation - FATMore FBO Information
 
Signature Flight Support - FAT

This FBO has not yet been rated
FS:Independent
Last Updated: May-03
Login to update fuel prices
SS:
Contact Signature Flight Support - FATMore FBO Information
 
Add another FBO Facility Photos Catering Weather Repair Courtesy Rental Type 100LL JetA JetA+ MOGAS 8087
Services Transportation Aviation Fuel Prices: Prices include tax


model-print
model-print
model-print
model-print